Time;durP1;ratioP1;P1;durP2;ratioP2;P2;SDS_P1;SDS_P2;PMS_P1;PMS_P2;Temp;Humidity;BMP_temperature;BMP_pressure;BME280_temperature;BME280_humidity;BME280_pressure;Samples;Min_cycle;Max_cycle;Signal;HPM_P1;HPM_P2
2022/01/07 00:02:28;;;;;;;14.52;4.55;;;3.00;99.90;;;;;;4739087;30;20044;-89
2022/01/07 00:05:26;;;;;;;;;;;;;;;;;;;;;
2022/01/07 00:07:54;;;;;;;6.00;4.30;;;2.50;99.90;;;;;;4765594;30;20467;-90
2022/01/07 00:10:30;;;;;;;6.45;4.05;;;3.00;99.90;;;;;;4753232;30;20043;-89
2022/01/07 00:13:14;;;;;;;;;;;;;;;;;;;;;
2022/01/07 00:15:45;;;;;;;11.75;3.70;;;3.10;99.90;;;;;;4752662;30;20094;-89
2022/01/07 00:18:19;;;;;;;6.18;3.72;;;2.80;99.90;;;;;;4735934;30;20063;-90
2022/01/07 00:21:05;;;;;;;7.27;4.03;;;3.00;99.90;;;;;;4722270;30;20566;-88
2022/01/07 00:23:55;;;;;;;4.55;3.10;;;3.50;99.90;;;;;;4750240;30;20050;-89
2022/01/07 00:26:45;;;;;;;10.13;4.00;;;2.10;99.90;;;;;;4739525;30;20055;-90
2022/01/07 00:30:01;;;;;;;7.95;4.30;;;3.80;99.90;;;;;;4734747;30;20058;-89
2022/01/07 00:33:08;;;;;;;7.95;3.63;;;3.80;99.90;;;;;;4727810;30;20543;-90
2022/01/07 00:35:43;;;;;;;;;;;;;;;;;;;;;
2022/01/07 00:38:17;;;;;;;9.50;4.00;;;2.30;99.90;;;;;;4736029;30;20048;-90
2022/01/07 00:40:54;;;;;;;7.05;3.17;;;4.10;99.90;;;;;;4735468;30;20059;-89
2022/01/07 00:43:41;;;;;;;6.15;3.60;;;2.90;99.90;;;;;;4707309;30;20063;-90
2022/01/07 00:46:30;;;;;;;10.07;3.88;;;2.40;99.90;;;;;;4734979;30;20567;-90
2022/01/07 00:48:56;;;;;;;12.57;3.88;;;3.10;99.90;;;;;;4720686;30;20475;-90
2022/01/07 00:52:02;;;;;;;;;;;;;;;;;;;;;
2022/01/07 00:57:53;;;;;;;7.63;3.80;;;4.10;99.90;;;;;;4687257;30;20051;-92
2022/01/07 01:00:38;;;;;;;6.50;3.60;;;3.50;99.90;;;;;;4736179;30;20519;-91
2022/01/07 01:03:07;;;;;;;9.18;3.38;;;2.90;99.90;;;;;;4707648;30;20044;-92
2022/01/07 01:05:52;;;;;;;;;;;;;;;;;;;;;
2022/01/07 01:08:30;;;;;;;12.43;4.13;;;2.70;99.90;;;;;;4723074;30;20044;-92
2022/01/07 01:11:29;;;;;;;;;;;;;;;;;;;;;
2022/01/07 01:14:29;;;;;;;5.00;3.72;;;2.70;99.90;;;;;;4750389;30;20496;-91
2022/01/07 01:17:04;;;;;;;6.13;2.85;;;2.50;99.90;;;;;;4710710;30;20076;-92
2022/01/07 01:19:40;;;;;;;6.50;3.40;;;2.40;99.90;;;;;;4735484;30;20063;-96
2022/01/07 01:22:44;;;;;;;;;;;;;;;;;;;;;
2022/01/07 01:26:18;;;;;;;;;;;;;;;;;;;;;
2022/01/07 01:47:04;;;;;;;;;;;;;;;;;;;;;
2022/01/07 01:54:25;;;;;;;;;;;;;;;;;;;;;
2022/01/07 01:58:11;;;;;;;;;;;;;;;;;;;;;
2022/01/07 02:01:25;;;;;;;9.30;3.90;;;2.60;99.90;;;;;;4659647;30;20073;-93
2022/01/07 02:04:49;;;;;;;;;;;;;;;;;;;;;
2022/01/07 02:07:47;;;;;;;13.25;5.18;;;2.80;99.90;;;;;;4661950;30;20058;-92
2022/01/07 02:14:14;;;;;;;;;;;;;;;;;;;;;
2022/01/07 02:17:24;;;;;;;;;;;;;;;;;;;;;
2022/01/07 02:21:04;;;;;;;9.50;5.47;;;3.30;99.90;;;;;;4671935;30;20065;-93
2022/01/07 02:24:19;;;;;;;5.70;3.65;;;1.90;99.90;;;;;;4666472;30;20072;-94
2022/01/07 02:31:05;;;;;;;9.70;4.80;;;1.90;99.90;;;;;;4682031;30;20081;-95
2022/01/07 02:34:22;;;;;;;8.25;3.88;;;1.90;99.90;;;;;;4734860;30;20052;-94
2022/01/07 03:10:33;;;;;;;;;;;;;;;;;;;;;
2022/01/07 03:17:44;;;;;;;;;;;;;;;;;;;;;
2022/01/07 03:29:18;;;;;;;7.55;4.88;;;2.80;99.90;;;;;;4618705;31;20130;-96
2022/01/07 03:32:18;;;;;;;;;;;;;;;;;;;;;
2022/01/07 03:39:15;;;;;;;;;;;;;;;;;;;;;
2022/01/07 03:43:02;;;;;;;;;;;;;;;;;;;;;
2022/01/07 04:25:23;;;;;;;;;;;;;;;;;;;;;
2022/01/07 04:32:18;;;;;;;7.75;5.13;;;1.60;99.90;;;;;;6135936;23;20021;-96
2022/01/07 04:35:50;;;;;;;;;;;;;;;;;;;;;
2022/01/07 04:46:51;;;;;;;;;;;;;;;;;;;;;
2022/01/07 04:50:01;;;;;;;;;;;;;;;;;;;;;
2022/01/07 05:00:15;;;;;;;8.00;5.15;;;2.10;99.90;;;;;;5991530;23;20027;-96
2022/01/07 05:04:08;;;;;;;;;;;;;;;;;;;;;
2022/01/07 05:11:33;;;;;;;;;;;;;;;;;;;;;
2022/01/07 06:16:40;;;;;;;;;;;;;;;;;;;;;
2022/01/07 06:20:09;;;;;;;;;;;;;;;;;;;;;
2022/01/07 07:08:14;;;;;;;7.90;4.00;;;2.60;99.90;;;;;;5818623;24;20105;-93
2022/01/07 07:11:21;;;;;;;5.97;3.88;;;3.40;99.90;;;;;;5989339;24;20024;-90
2022/01/07 07:14:01;;;;;;;;;;;;;;;;;;;;;
2022/01/07 07:39:55;;;;;;;8.43;4.80;;;2.50;99.90;;;;;;5836255;24;20034;-94
2022/01/07 07:45:42;;;;;;;10.73;6.32;;;3.60;99.90;;;;;;5872512;24;20056;-96
2022/01/07 07:49:10;;;;;;;;;;;;;;;;;;;;;
2022/01/07 07:56:17;;;;;;;8.98;5.72;;;2.90;99.90;;;;;;5972909;23;20397;-91
2022/01/07 07:58:58;;;;;;;11.15;7.18;;;2.70;99.90;;;;;;6025955;23;20072;-94
2022/01/07 08:01:43;;;;;;;13.63;7.22;;;2.70;99.90;;;;;;6048468;23;20018;-92
2022/01/07 08:04:11;;;;;;;8.77;6.53;;;2.90;99.90;;;;;;6066236;23;20073;-87
2022/01/07 08:06:43;;;;;;;10.55;6.63;;;2.80;99.90;;;;;;6043264;23;20025;-87
2022/01/07 08:09:33;;;;;;;10.68;6.53;;;3.70;99.90;;;;;;6066468;23;20054;-90
2022/01/07 08:18:46;;;;;;;8.43;6.30;;;2.90;99.90;;;;;;5967052;23;20147;-88
2022/01/07 08:22:10;;;;;;;14.75;8.13;;;3.50;99.90;;;;;;5962969;23;20051;-89
2022/01/07 08:24:50;;;;;;;11.88;7.95;;;3.00;99.90;;;;;;5985646;23;20123;-90
2022/01/07 08:27:46;;;;;;;;;;;;;;;;;;;;;
2022/01/07 08:30:38;;;;;;;9.48;7.18;;;3.40;99.90;;;;;;6008693;23;20353;-89
2022/01/07 08:36:02;;;;;;;10.75;8.60;;;3.00;99.90;;;;;;6047646;23;20022;-88
2022/01/07 08:38:59;;;;;;;;;;;;;;;;;;;;;
2022/01/07 08:41:30;;;;;;;13.80;8.13;;;3.60;99.90;;;;;;6066478;23;20015;-89
2022/01/07 08:44:26;;;;;;;12.85;6.35;;;3.20;99.90;;;;;;6042119;23;20019;-87
2022/01/07 08:46:55;;;;;;;12.52;8.88;;;3.20;99.90;;;;;;6041945;23;20033;-91
2022/01/07 08:49:52;;;;;;;12.00;7.88;;;2.90;99.90;;;;;;6043324;23;20026;-88
2022/01/07 08:52:20;;;;;;;23.17;10.38;;;2.60;99.90;;;;;;6026237;23;20057;-86
2022/01/07 08:54:52;;;;;;;14.68;9.45;;;3.80;99.90;;;;;;6043400;23;20023;-88
2022/01/07 09:01:40;;;;;;;22.30;9.27;;;3.50;99.90;;;;;;6014580;23;20075;-91
2022/01/07 09:07:16;;;;;;;;;;;3.50;99.90;;;;;;6064448;23;20022;-94
2022/01/07 09:10:07;;;;;;;;;;;;;;;;;;;;;
2022/01/07 09:13:07;;;;;;;15.48;8.52;;;3.50;99.90;;;;;;6098870;23;20078;-92
2022/01/07 09:16:11;;;;;;;;;;;;;;;;;;;;;
2022/01/07 09:19:01;;;;;;;;;;;;;;;;;;;;;
2022/01/07 09:22:05;;;;;;;15.25;10.25;;;2.60;99.90;;;;;;6049793;23;20025;-93
2022/01/07 09:28:33;;;;;;;23.08;10.68;;;3.00;99.90;;;;;;6074477;23;20023;-91
2022/01/07 09:31:15;;;;;;;25.70;9.35;;;3.80;99.90;;;;;;6071730;23;20027;-88
2022/01/07 09:34:40;;;;;;;;;;;;;;;;;;;;;
2022/01/07 09:44:43;;;;;;;12.60;8.68;;;3.90;99.90;;;;;;6046589;23;20082;-90
2022/01/07 09:48:02;;;;;;;;;;;;;;;;;;;;;
2022/01/07 09:51:30;;;;;;;;;;;;;;;;;;;;;
2022/01/07 09:59:00;;;;;;;15.02;10.00;;;4.10;99.90;;;;;;5809536;24;20030;-92
2022/01/07 10:02:13;;;;;;;;;;;5.10;99.90;;;;;;5983036;23;20016;-91
2022/01/07 10:05:06;;;;;;;13.98;8.90;;;4.30;99.90;;;;;;6017399;23;19921;-90
2022/01/07 10:08:19;;;;;;;15.95;10.15;;;2.90;99.90;;;;;;6047885;23;20022;-90
2022/01/07 10:11:26;;;;;;;;;;;;;;;;;;;;;
2022/01/07 10:18:36;;;;;;;;;;;;;;;;;;;;;
2022/01/07 10:25:46;;;;;;;9.90;5.20;;;5.00;99.90;;;;;;5927912;24;20028;-94
2022/01/07 10:28:51;;;;;;;10.93;6.70;;;3.10;99.90;;;;;;5887352;24;20048;-93
2022/01/07 10:31:33;;;;;;;11.95;6.05;;;4.60;99.90;;;;;;5945095;24;20016;-94
2022/01/07 10:38:42;;;;;;;;;;;;;;;;;;;;;
2022/01/07 10:41:20;;;;;;;2.35;2.05;;;4.90;99.90;;;;;;6060343;23;20084;-94
2022/01/07 10:44:08;;;;;;;2.45;1.58;;;4.70;99.90;;;;;;6070635;23;20050;-91
2022/01/07 10:47:00;;;;;;;2.38;2.17;;;4.90;99.90;;;;;;6047530;23;20024;-91
2022/01/07 10:49:32;;;;;;;2.80;2.28;;;4.60;99.90;;;;;;6068859;23;20095;-88
2022/01/07 10:52:31;;;;;;;;;;;;;;;;;;;;;
2022/01/07 10:55:27;;;;;;;6.80;3.40;;;4.30;99.90;;;;;;6071561;23;20025;-90
2022/01/07 10:57:59;;;;;;;5.80;3.63;;;4.10;99.90;;;;;;6046091;23;20340;-89
2022/01/07 11:00:47;;;;;;;5.05;3.90;;;5.10;99.90;;;;;;6045216;23;20535;-88
2022/01/07 11:03:17;;;;;;;5.60;4.47;;;4.70;99.90;;;;;;6069185;23;20025;-88
2022/01/07 11:05:46;;;;;;;8.98;4.18;;;4.90;99.90;;;;;;6015646;23;20022;-89
2022/01/07 11:08:16;;;;;;;8.07;5.00;;;4.80;99.90;;;;;;6069609;23;20321;-92
2022/01/07 11:10:47;;;;;;;6.40;4.07;;;4.40;99.90;;;;;;6069571;23;20343;-88
2022/01/07 11:13:21;;;;;;;9.82;4.63;;;4.70;99.90;;;;;;6045288;23;20463;-90
2022/01/07 11:15:52;;;;;;;7.75;5.25;;;4.90;99.90;;;;;;6045625;23;20063;-89
2022/01/07 11:18:27;;;;;;;6.40;4.63;;;4.90;99.90;;;;;;6047877;23;20101;-87
2022/01/07 11:20:58;;;;;;;8.20;5.43;;;5.60;99.90;;;;;;6072162;23;20030;-88
2022/01/07 11:23:48;;;;;;;;;;;;;;;;;;;;;
2022/01/07 11:26:28;;;;;;;8.65;5.05;;;4.70;99.90;;;;;;6071733;23;20058;-91
2022/01/07 11:29:11;;;;;;;8.50;5.45;;;6.80;99.90;;;;;;6025277;23;20019;-89
2022/01/07 11:31:53;;;;;;;10.68;5.30;;;5.80;99.90;;;;;;6024949;23;20596;-89
2022/01/07 11:34:30;;;;;;;8.35;5.45;;;5.70;99.90;;;;;;6070717;23;20101;-87
2022/01/07 11:37:14;;;;;;;8.98;4.95;;;5.60;99.90;;;;;;6025698;23;20073;-87
2022/01/07 11:39:41;;;;;;;9.20;4.93;;;5.50;99.90;;;;;;6026667;23;20466;-85
2022/01/07 11:42:07;;;;;;;10.88;5.93;;;5.30;99.90;;;;;;6047119;23;20022;-86
2022/01/07 11:44:39;;;;;;;8.75;6.00;;;5.30;99.90;;;;;;6046799;23;20021;-90
2022/01/07 11:47:24;;;;;;;9.15;5.70;;;4.90;99.90;;;;;;6071112;23;20022;-86
2022/01/07 11:50:14;;;;;;;8.57;5.68;;;5.20;99.90;;;;;;6047239;23;20097;-87
2022/01/07 11:52:40;;;;;;;10.80;5.38;;;5.10;99.90;;;;;;6045824;23;20447;-85
2022/01/07 11:55:26;;;;;;;7.50;6.23;;;4.00;99.90;;;;;;6070946;23;20018;-86
2022/01/07 11:58:06;;;;;;;11.70;7.18;;;4.90;99.90;;;;;;6047069;23;20448;-85
2022/01/07 12:00:56;;;;;;;14.35;6.65;;;4.80;99.90;;;;;;6046192;23;20045;-85
2022/01/07 12:03:48;;;;;;;8.27;5.32;;;4.80;99.90;;;;;;6047064;23;20028;-85
2022/01/07 12:06:17;;;;;;;12.85;6.43;;;4.70;99.90;;;;;;6043729;23;20033;-85
2022/01/07 12:09:10;;;;;;;9.32;6.75;;;4.70;99.90;;;;;;6047865;23;20028;-85
2022/01/07 12:11:40;;;;;;;6.93;5.40;;;4.80;99.90;;;;;;6070258;23;20448;-86
2022/01/07 12:14:14;;;;;;;8.35;6.45;;;4.80;99.90;;;;;;6046970;23;20102;-85
2022/01/07 12:16:46;;;;;;;12.63;5.85;;;4.80;99.90;;;;;;6046731;23;20330;-85
2022/01/07 12:19:23;;;;;;;5.47;4.88;;;4.80;99.90;;;;;;6046769;23;20018;-86
2022/01/07 12:21:59;;;;;;;16.35;6.97;;;4.90;99.90;;;;;;6047342;23;20018;-84
2022/01/07 12:24:32;;;;;;;8.05;5.97;;;5.00;99.90;;;;;;6070034;23;20018;-85
2022/01/07 12:27:01;;;;;;;9.23;4.13;;;5.10;99.90;;;;;;6047454;23;20057;-86
2022/01/07 12:29:31;;;;;;;5.63;4.27;;;5.10;99.90;;;;;;6046541;23;20451;-86
2022/01/07 12:31:57;;;;;;;4.88;3.40;;;5.10;99.90;;;;;;6046640;23;20470;-84
2022/01/07 12:34:29;;;;;;;6.45;4.15;;;5.10;99.90;;;;;;6046692;23;20026;-89
2022/01/07 12:37:10;;;;;;;;;;;;;;;;;;;;;
2022/01/07 12:39:54;;;;;;;1.77;1.58;;;5.20;99.90;;;;;;6070540;23;20014;-89
2022/01/07 12:42:46;;;;;;;;;;;;;;;;;;;;;
2022/01/07 12:51:44;;;;;;;2.35;0.88;;;4.90;99.90;;;;;;6069782;23;20033;-88
2022/01/07 12:55:03;;;;;;;;;;;;;;;;;;;;;
2022/01/07 12:58:38;;;;;;;;;;;;;;;;;;;;;
2022/01/07 13:01:50;;;;;;;;;;;;;;;;;;;;;
2022/01/07 13:04:45;;;;;;;2.35;0.70;;;5.90;99.90;;;;;;6070674;23;20085;-88
2022/01/07 13:10:08;;;;;;;2.38;0.85;;;5.90;99.90;;;;;;6045613;23;20046;-87
2022/01/07 13:12:35;;;;;;;4.65;1.20;;;5.90;99.90;;;;;;6069836;23;20088;-88
2022/01/07 13:15:03;;;;;;;3.03;1.20;;;6.00;99.90;;;;;;6046391;23;20057;-84
2022/01/07 13:17:45;;;;;;;1.80;1.00;;;6.10;99.90;;;;;;6046327;23;20054;-95
2022/01/07 13:20:26;;;;;;;1.50;1.00;;;6.30;99.90;;;;;;6046439;23;20282;-87
2022/01/07 13:23:01;;;;;;;1.75;0.80;;;6.30;99.90;;;;;;6046251;23;20062;-87
2022/01/07 13:25:42;;;;;;;1.63;1.17;;;6.10;99.90;;;;;;6046281;23;20072;-86
2022/01/07 13:28:09;;;;;;;2.80;1.05;;;5.60;99.90;;;;;;6024388;23;20105;-86
2022/01/07 13:30:46;;;;;;;2.05;1.25;;;5.10;99.90;;;;;;6068927;23;20022;-85
2022/01/07 13:33:42;;;;;;;4.68;1.50;;;5.50;99.90;;;;;;6045803;23;20026;-87
2022/01/07 13:36:16;;;;;;;2.72;1.75;;;5.20;99.90;;;;;;6034942;23;20018;-85
2022/01/07 13:38:45;;;;;;;2.13;1.85;;;5.10;99.90;;;;;;6069184;23;20022;-86
2022/01/07 13:41:19;;;;;;;2.75;2.10;;;5.00;99.90;;;;;;6046419;23;20030;-84
2022/01/07 13:43:50;;;;;;;6.07;2.03;;;4.90;99.90;;;;;;6045670;23;20023;-84
2022/01/07 13:46:26;;;;;;;4.53;2.28;;;4.80;99.90;;;;;;6070391;23;20014;-86
2022/01/07 13:49:18;;;;;;;;;;;;;;;;;;;;;
2022/01/07 13:51:55;;;;;;;2.63;2.00;;;4.70;99.90;;;;;;6069781;23;20061;-86
2022/01/07 13:54:22;;;;;;;7.88;2.80;;;3.80;99.90;;;;;;6070379;23;20393;-86
2022/01/07 13:57:07;;;;;;;4.60;2.30;;;5.80;99.90;;;;;;6069449;23;20455;-86
2022/01/07 13:59:49;;;;;;;6.93;2.33;;;4.60;99.90;;;;;;6046406;23;20026;-88
2022/01/07 14:02:26;;;;;;;3.30;2.75;;;4.60;99.90;;;;;;6046533;23;20093;-87
2022/01/07 14:04:58;;;;;;;4.80;2.95;;;4.50;99.90;;;;;;6046450;23;20065;-87
2022/01/07 14:07:32;;;;;;;8.48;2.50;;;3.60;99.90;;;;;;6066783;23;20019;-87
2022/01/07 14:10:25;;;;;;;;;;;;;;;;;;;;;
2022/01/07 14:13:20;;;;;;;4.10;2.20;;;4.50;99.90;;;;;;6068644;23;20065;-87
2022/01/07 14:15:57;;;;;;;3.85;1.92;;;4.50;99.90;;;;;;6068557;23;20478;-87
2022/01/07 14:18:31;;;;;;;6.53;2.03;;;4.40;99.90;;;;;;6046231;23;20019;-88
2022/01/07 14:21:06;;;;;;;4.07;1.70;;;4.40;99.90;;;;;;6022635;23;20455;-87
2022/01/07 14:23:39;;;;;;;5.47;1.65;;;4.40;99.90;;;;;;6046447;23;20392;-87
2022/01/07 14:26:19;;;;;;;1.98;1.55;;;4.80;99.90;;;;;;6070021;23;20019;-89
2022/01/07 14:28:59;;;;;;;6.55;2.53;;;4.30;99.90;;;;;;6045656;23;20015;-88
2022/01/07 14:31:25;;;;;;;2.92;2.58;;;3.60;99.90;;;;;;6046278;23;20019;-87
2022/01/07 14:34:01;;;;;;;2.23;2.00;;;4.20;99.90;;;;;;6069297;23;20093;-87
2022/01/07 14:36:32;;;;;;;10.75;2.05;;;4.40;99.90;;;;;;6023236;23;20015;-88
2022/01/07 14:39:16;;;;;;;;;;;;;;;;;;;;;
2022/01/07 14:41:44;;;;;;;3.25;2.13;;;4.10;99.90;;;;;;6048715;23;20015;-88
2022/01/07 14:44:16;;;;;;;3.75;1.77;;;4.10;99.90;;;;;;6046644;23;20022;-87
2022/01/07 14:46:42;;;;;;;6.05;2.38;;;3.10;99.90;;;;;;6093116;23;20350;-88
2022/01/07 14:49:13;;;;;;;3.80;3.07;;;4.30;99.90;;;;;;6069847;23;20101;-89
2022/01/07 14:51:42;;;;;;;3.70;2.10;;;4.10;99.90;;;;;;6025280;23;20152;-88
2022/01/07 14:54:10;;;;;;;4.10;2.42;;;4.10;99.90;;;;;;6072428;23;20340;-88
2022/01/07 14:57:01;;;;;;;2.90;2.50;;;3.90;99.90;;;;;;6025405;23;20102;-87
2022/01/07 14:59:33;;;;;;;7.68;3.00;;;4.00;99.90;;;;;;6049023;23;20054;-89
2022/01/07 15:02:21;;;;;;;;;;;;;;;;;;;;;
2022/01/07 15:05:05;;;;;;;4.60;3.42;;;4.00;99.90;;;;;;6071259;23;20018;-88
2022/01/07 15:07:34;;;;;;;9.43;4.25;;;4.00;99.90;;;;;;6070328;23;20470;-88
2022/01/07 15:10:11;;;;;;;6.10;3.63;;;2.90;99.90;;;;;;6046950;23;20015;-88
2022/01/07 15:12:44;;;;;;;7.07;3.30;;;3.80;99.90;;;;;;6047929;23;20023;-88
2022/01/07 15:18:08;;;;;;;6.68;3.20;;;4.00;99.90;;;;;;6071366;23;20355;-88
2022/01/07 15:20:34;;;;;;;5.65;3.25;;;4.70;99.90;;;;;;6095536;23;20022;-88
2022/01/07 15:23:04;;;;;;;4.20;3.67;;;3.80;99.90;;;;;;6070813;23;20459;-88
2022/01/07 15:25:33;;;;;;;9.20;2.97;;;3.90;99.90;;;;;;6071398;23;20087;-87
2022/01/07 15:27:58;;;;;;;8.55;3.80;;;4.80;99.90;;;;;;6070491;23;20022;-88
2022/01/07 15:30:27;;;;;;;5.95;3.42;;;3.90;99.90;;;;;;6070992;23;20042;-87
2022/01/07 15:32:53;;;;;;;8.63;3.80;;;3.70;99.90;;;;;;6071699;23;20443;-87
2022/01/07 15:35:22;;;;;;;26.25;4.75;;;3.80;99.90;;;;;;6072815;23;20014;-87
2022/01/07 15:37:51;;;;;;;14.60;4.22;;;5.10;99.90;;;;;;6071999;23;20471;-87
2022/01/07 15:40:17;;;;;;;6.75;4.15;;;3.80;99.90;;;;;;6096257;23;20051;-86
2022/01/07 15:42:45;;;;;;;6.47;3.93;;;3.90;99.90;;;;;;6072056;23;20054;-86
2022/01/07 15:45:11;;;;;;;9.60;3.63;;;3.80;99.90;;;;;;6070934;23;20490;-86
2022/01/07 15:47:37;;;;;;;6.40;3.83;;;3.90;99.90;;;;;;6096649;23;20014;-86
2022/01/07 15:50:14;;;;;;;3.30;3.00;;;3.90;99.90;;;;;;6070276;23;20022;-87
2022/01/07 15:52:53;;;;;;;6.40;3.60;;;3.80;99.90;;;;;;6047153;23;20018;-86
2022/01/07 15:55:21;;;;;;;8.82;4.60;;;3.80;99.90;;;;;;6003870;23;20339;-87
2022/01/07 15:57:50;;;;;;;14.43;4.05;;;3.90;99.90;;;;;;6070673;23;20065;-87
2022/01/07 16:00:38;;;;;;;6.75;2.85;;;3.90;99.90;;;;;;6025461;23;20050;-88
2022/01/07 16:03:04;;;;;;;7.78;4.57;;;2.90;99.90;;;;;;6070215;23;20143;-88
2022/01/07 16:05:31;;;;;;;9.03;3.63;;;4.00;99.90;;;;;;6071453;23;20023;-88
2022/01/07 16:07:57;;;;;;;;;;;4.00;99.90;;;;;;6046974;23;20022;-87
2022/01/07 16:10:26;;;;;;;4.25;3.13;;;3.90;99.90;;;;;;6071023;23;19917;-86
2022/01/07 16:12:52;;;;;;;7.80;4.50;;;4.10;99.90;;;;;;6070430;23;20525;-87
2022/01/07 16:15:21;;;;;;;7.53;3.35;;;3.90;99.90;;;;;;6046891;23;20018;-87
2022/01/07 16:17:57;;;;;;;;;;;;;;;;;;;;;
2022/01/07 16:20:33;;;;;;;12.45;3.60;;;3.90;99.90;;;;;;6071088;23;20073;-87
2022/01/07 16:23:06;;;;;;;3.58;2.75;;;4.00;99.90;;;;;;6023144;23;20069;-87
2022/01/07 16:25:37;;;;;;;3.17;2.88;;;4.20;99.90;;;;;;6023888;23;20071;-87
2022/01/07 16:28:05;;;;;;;5.10;1.83;;;3.80;99.90;;;;;;6071536;23;20022;-87
2022/01/07 16:30:41;;;;;;;3.25;1.90;;;3.70;99.90;;;;;;6024549;23;20443;-88
2022/01/07 16:33:10;;;;;;;5.88;1.77;;;3.70;99.90;;;;;;6024314;23;20022;-87
2022/01/07 16:35:38;;;;;;;3.90;1.40;;;3.00;99.90;;;;;;6070837;23;20097;-89
2022/01/07 16:38:04;;;;;;;3.30;1.20;;;3.60;99.90;;;;;;6022936;23;20041;-88
2022/01/07 16:40:48;;;;;;;5.17;1.77;;;3.60;99.90;;;;;;6071184;23;20452;-89
2022/01/07 16:43:29;;;;;;;;;;;;;;;;;;;;;
2022/01/07 16:46:16;;;;;;;1.77;1.67;;;3.60;99.90;;;;;;6050508;23;20056;-93
2022/01/07 16:49:01;;;;;;;;;;;3.50;99.90;;;;;;6095855;23;20066;-94
2022/01/07 16:55:15;;;;;;;;;;;;;;;;;;;;;
2022/01/07 16:58:35;;;;;;;;;;;;;;;;;;;;;
2022/01/07 17:01:29;;;;;;;8.95;1.17;;;3.30;99.90;;;;;;6050273;23;20014;-91
2022/01/07 17:04:17;;;;;;;7.38;1.30;;;4.30;99.90;;;;;;6071202;23;20053;-88
2022/01/07 17:07:11;;;;;;;6.47;1.52;;;3.30;99.90;;;;;;6024525;23;20452;-91
2022/01/07 17:09:56;;;;;;;;;;;;;;;;;;;;;
2022/01/07 17:12:45;;;;;;;0.98;0.85;;;3.10;99.90;;;;;;6068659;23;20078;-92
2022/01/07 17:15:12;;;;;;;3.53;1.80;;;2.90;99.90;;;;;;6024096;23;20343;-89
2022/01/07 17:20:27;;;;;;;2.33;1.35;;;3.20;99.90;;;;;;6069256;23;20022;-89
2022/01/07 17:25:41;;;;;;;2.10;0.75;;;3.20;99.90;;;;;;6069945;23;20593;-88
2022/01/07 17:28:07;;;;;;;5.13;1.50;;;3.10;99.90;;;;;;6046095;23;20105;-88
2022/01/07 17:30:50;;;;;;;3.00;1.57;;;3.10;99.90;;;;;;6046094;23;20021;-88
2022/01/07 17:33:27;;;;;;;7.53;2.33;;;3.10;99.90;;;;;;6046024;23;20093;-90
2022/01/07 17:36:11;;;;;;;1.47;1.30;;;4.20;99.90;;;;;;6022054;23;20018;-90
2022/01/07 17:38:41;;;;;;;5.18;2.22;;;3.30;99.90;;;;;;6046200;23;20014;-88
2022/01/07 17:41:10;;;;;;;4.75;1.48;;;2.90;99.90;;;;;;6045315;23;20022;-88
2022/01/07 17:43:59;;;;;;;5.40;2.58;;;3.00;99.90;;;;;;6046493;23;20018;-89
2022/01/07 17:46:25;;;;;;;6.65;1.60;;;2.90;99.90;;;;;;6045331;23;20089;-89
2022/01/07 17:49:07;;;;;;;6.27;2.20;;;3.60;99.90;;;;;;6070190;23;20018;-88
2022/01/07 17:51:38;;;;;;;3.05;1.63;;;2.80;99.90;;;;;;6045472;23;20049;-88
2022/01/07 17:54:15;;;;;;;1.95;1.25;;;3.40;99.90;;;;;;6046470;23;20029;-87
2022/01/07 17:56:59;;;;;;;3.65;1.50;;;2.60;99.90;;;;;;6045604;23;20026;-91
2022/01/07 17:59:30;;;;;;;2.10;1.48;;;2.60;99.90;;;;;;6027088;23;20018;-88
2022/01/07 18:02:09;;;;;;;3.53;1.90;;;2.50;99.90;;;;;;6045665;23;20042;-88
2022/01/07 18:04:48;;;;;;;1.67;1.30;;;2.50;99.90;;;;;;6025596;23;20026;-87
2022/01/07 18:07:28;;;;;;;5.22;1.40;;;2.50;99.90;;;;;;6044515;23;20028;-87
2022/01/07 18:10:02;;;;;;;1.67;1.13;;;2.50;99.90;;;;;;6042077;23;20481;-88
2022/01/07 18:12:31;;;;;;;7.70;1.70;;;3.00;99.90;;;;;;6046120;23;20015;-87
2022/01/07 18:15:09;;;;;;;;;;;;;;;;;;;;;
2022/01/07 18:17:41;;;;;;;4.20;1.90;;;3.50;99.90;;;;;;6047744;23;20022;-89
2022/01/07 18:20:13;;;;;;;4.28;2.13;;;2.80;99.90;;;;;;6046040;23;20022;-87
2022/01/07 18:22:46;;;;;;;2.35;1.50;;;2.30;99.90;;;;;;6045305;23;20050;-89
2022/01/07 18:25:15;;;;;;;1.80;1.00;;;2.90;99.90;;;;;;6069562;23;20451;-88
2022/01/07 18:28:04;;;;;;;1.20;1.00;;;2.90;99.90;;;;;;6069518;23;20018;-90
2022/01/07 18:30:40;;;;;;;3.13;1.38;;;3.00;99.90;;;;;;6043893;23;20050;-93
2022/01/07 18:39:40;;;;;;;;;;;;;;;;;;;;;
2022/01/07 18:45:39;;;;;;;1.80;0.85;;;2.50;99.90;;;;;;6025977;23;20061;-89
2022/01/07 18:48:17;;;;;;;3.25;1.27;;;2.50;99.90;;;;;;6046324;23;20027;-89
2022/01/07 18:54:22;;;;;;;2.65;1.50;;;2.20;99.90;;;;;;5899582;24;20498;-90
2022/01/07 19:00:12;;;;;;;;;;;2.10;99.90;;;;;;6027146;23;20022;-89
2022/01/07 19:07:24;;;;;;;1.27;1.05;;;1.70;99.90;;;;;;5877862;24;20483;-92
2022/01/07 19:10:09;;;;;;;1.83;1.58;;;1.90;99.90;;;;;;5928619;23;20536;-90
2022/01/07 19:13:42;;;;;;;;;;;;;;;;;;;;;
2022/01/07 19:20:06;;;;;;;5.03;1.27;;;2.10;99.90;;;;;;5997176;23;20027;-91
2022/01/07 19:23:00;;;;;;;1.88;1.10;;;3.10;99.90;;;;;;6002415;23;20101;-94
2022/01/07 19:26:30;;;;;;;4.70;1.80;;;2.60;99.90;;;;;;5996175;23;20065;-95
2022/01/07 19:40:31;;;;;;;3.92;2.15;;;1.80;99.90;;;;;;5905384;24;20164;-87
2022/01/07 19:43:31;;;;;;;;;;;;;;;;;;;;;
2022/01/07 19:46:16;;;;;;;1.58;1.48;;;2.30;99.90;;;;;;5952418;24;20505;-89
2022/01/07 19:49:05;;;;;;;1.88;1.30;;;2.20;99.90;;;;;;5956213;24;20024;-89
2022/01/07 19:54:58;;;;;;;;;;;2.20;99.90;;;;;;5979927;24;20489;-89
2022/01/07 20:01:49;;;;;;;3.58;2.28;;;2.20;99.90;;;;;;5820445;24;20038;-92
2022/01/07 20:05:01;;;;;;;;;;;;;;;;;;;;;
2022/01/07 20:07:54;;;;;;;1.85;1.65;;;2.20;99.90;;;;;;5873691;24;20063;-90
2022/01/07 20:10:41;;;;;;;4.25;1.92;;;2.20;99.90;;;;;;5923923;24;20496;-89
2022/01/07 20:14:07;;;;;;;6.03;2.58;;;1.70;99.90;;;;;;5983619;23;20022;-88
2022/01/07 20:16:53;;;;;;;9.10;2.50;;;3.40;99.90;;;;;;5998229;23;20033;-92
2022/01/07 20:19:40;;;;;;;3.42;2.47;;;2.10;99.90;;;;;;5996049;23;20074;-88
2022/01/07 20:22:34;;;;;;;;;;;;;;;;;;;;;
2022/01/07 20:25:05;;;;;;;7.68;2.42;;;1.60;99.90;;;;;;6042209;23;20022;-89
2022/01/07 20:27:50;;;;;;;;;;;;;;;;;;;;;
2022/01/07 20:30:19;;;;;;;;;;;3.40;99.90;;;;;;6042615;23;20090;-87
2022/01/07 20:32:56;;;;;;;3.90;2.78;;;3.30;99.90;;;;;;6017883;23;19956;-87
2022/01/07 20:35:31;;;;;;;3.20;2.90;;;2.70;99.90;;;;;;5997140;23;20388;-88
2022/01/07 20:38:28;;;;;;;;;;;;;;;;;;;;;
2022/01/07 20:40:57;;;;;;;7.28;2.97;;;1.80;99.90;;;;;;6041708;23;20090;-87
2022/01/07 20:43:53;;;;;;;8.93;3.37;;;2.10;99.90;;;;;;6018068;23;20061;-90
2022/01/07 20:47:00;;;;;;;10.90;2.78;;;1.90;99.90;;;;;;6018289;23;20479;-90
2022/01/07 20:49:36;;;;;;;3.78;3.42;;;2.00;99.90;;;;;;6019618;23;20025;-88
2022/01/07 20:52:31;;;;;;;9.20;3.10;;;2.10;99.90;;;;;;5995109;23;20078;-89
2022/01/07 20:54:57;;;;;;;5.80;3.58;;;2.00;99.90;;;;;;6016968;23;20127;-88
2022/01/07 20:57:28;;;;;;;6.82;3.40;;;1.50;99.90;;;;;;6018361;23;20478;-89
2022/01/07 20:59:57;;;;;;;11.35;3.85;;;1.80;99.90;;;;;;6017869;23;20026;-86
2022/01/07 21:02:27;;;;;;;10.57;3.63;;;2.20;99.90;;;;;;6042097;23;20073;-87
2022/01/07 21:05:03;;;;;;;;;;;;;;;;;;;;;
2022/01/07 21:08:19;;;;;;;9.95;4.25;;;2.40;99.90;;;;;;6026471;23;20021;-88
2022/01/07 21:10:47;;;;;;;5.80;3.88;;;2.90;99.90;;;;;;6069242;23;20028;-86
2022/01/07 21:13:15;;;;;;;7.20;3.85;;;2.60;99.90;;;;;;6070504;23;20014;-88
2022/01/07 21:15:55;;;;;;;;;;;;;;;;;;;;;
2022/01/07 21:18:29;;;;;;;3.47;2.50;;;1.50;99.90;;;;;;6071228;23;20014;-88
2022/01/07 21:21:09;;;;;;;4.68;4.28;;;2.00;99.90;;;;;;6046112;23;20097;-88
2022/01/07 21:23:42;;;;;;;4.25;3.08;;;1.30;99.90;;;;;;6070194;23;20019;-90
2022/01/07 21:26:18;;;;;;;7.82;3.85;;;1.20;99.90;;;;;;6046788;23;20097;-87
2022/01/07 21:28:59;;;;;;;8.07;4.05;;;1.40;99.90;;;;;;6046594;23;20019;-88
2022/01/07 21:31:47;;;;;;;4.15;3.05;;;2.50;99.90;;;;;;6046372;23;20026;-88
2022/01/07 21:34:16;;;;;;;5.78;2.75;;;1.20;99.90;;;;;;6024546;23;20081;-89
2022/01/07 21:36:43;;;;;;;6.73;2.50;;;1.20;99.90;;;;;;6069392;23;20066;-88
2022/01/07 21:39:37;;;;;;;;;;;1.30;99.90;;;;;;6071282;23;20388;-88
2022/01/07 21:42:12;;;;;;;3.15;1.65;;;2.00;99.90;;;;;;6073311;23;19933;-88
2022/01/07 21:46:03;;;;;;;4.60;2.22;;;1.30;99.90;;;;;;6069736;23;20018;-91
2022/01/07 21:49:03;;;;;;;6.45;2.80;;;1.10;99.90;;;;;;6077083;23;20031;-90
2022/01/07 21:55:12;;;;;;;2.13;1.38;;;0.60;99.90;;;;;;6050835;23;20018;-90
2022/01/07 21:57:41;;;;;;;8.98;2.30;;;1.10;99.90;;;;;;6023477;23;20447;-89
2022/01/07 22:00:38;;;;;;;2.15;1.83;;;2.40;99.90;;;;;;6046002;23;20538;-89
2022/01/07 22:03:22;;;;;;;1.35;1.25;;;0.90;99.90;;;;;;6069953;23;20119;-89
2022/01/07 22:05:59;;;;;;;2.25;1.90;;;1.10;99.90;;;;;;6045605;23;20392;-88
2022/01/07 22:09:06;;;;;;;4.40;1.90;;;1.30;99.90;;;;;;6043509;23;20022;-91
2022/01/07 22:11:44;;;;;;;8.35;1.55;;;1.20;99.90;;;;;;6016522;23;20351;-89
2022/01/07 22:14:19;;;;;;;2.40;1.63;;;1.40;99.90;;;;;;6024816;23;20019;-89
2022/01/07 22:17:09;;;;;;;;;;;;;;;;;;;;;
2022/01/07 22:19:53;;;;;;;3.35;1.83;;;1.20;99.90;;;;;;6028027;23;20081;-89
2022/01/07 22:22:57;;;;;;;2.17;1.70;;;0.90;99.90;;;;;;6024662;23;20097;-90
2022/01/07 22:25:31;;;;;;;4.75;2.35;;;1.30;99.90;;;;;;6066233;23;20412;-88
2022/01/07 22:28:00;;;;;;;5.15;1.75;;;1.30;99.90;;;;;;6022627;23;20018;-87